Time;durP1;ratioP1;P1;durP2;ratioP2;P2;SDS_P1;SDS_P2;PMS_P1;PMS_P2;Temp;Humidity;BMP_temperature;BMP_pressure;BME280_temperature;BME280_humidity;BME280_pressure;Samples;Min_cycle;Max_cycle;Signal;HPM_P1;HPM_P2
2023/03/20 00:02:21;;;;;;;11.10;6.70;;;;;;;7.68;100.00;101838.75;5070485;28;20060;-69
2023/03/20 00:04:47;;;;;;;9.45;7.03;;;;;;;7.69;100.00;101840.56;5069853;28;20379;-69
2023/03/20 00:07:12;;;;;;;11.93;8.32;;;;;;;7.69;100.00;101850.00;5070195;28;20034;-69
2023/03/20 00:09:38;;;;;;;12.80;8.45;;;;;;;7.69;100.00;101840.56;5070407;28;20035;-69
2023/03/20 00:12:04;;;;;;;14.75;8.57;;;;;;;7.67;100.00;101837.00;5070155;28;20031;-69
2023/03/20 00:14:30;;;;;;;16.27;9.25;;;;;;;7.67;100.00;101837.00;5070363;28;20375;-69
2023/03/20 00:16:56;;;;;;;12.30;8.48;;;;;;;7.65;100.00;101841.16;5069869;28;20027;-69
2023/03/20 00:19:24;;;;;;;11.88;8.40;;;;;;;7.66;100.00;101840.34;5070332;28;20388;-69
2023/03/20 00:21:51;;;;;;;11.68;8.10;;;;;;;7.63;100.00;101842.75;5070283;28;20109;-69
2023/03/20 00:24:17;;;;;;;10.68;8.68;;;;;;;7.60;100.00;101834.84;5058274;28;20039;-69
2023/03/20 00:26:44;;;;;;;11.45;8.68;;;;;;;7.56;100.00;101838.03;5068837;28;20060;-69
2023/03/20 00:29:20;;;;;;;13.45;8.25;;;;;;;7.52;100.00;101828.34;5070726;28;20042;-70
2023/03/20 00:31:45;;;;;;;11.23;7.30;;;;;;;7.49;100.00;101822.97;5044836;28;20083;-69
2023/03/20 00:34:14;;;;;;;13.82;8.23;;;;;;;7.44;100.00;101818.44;5068331;28;20067;-70
2023/03/20 00:36:39;;;;;;;17.70;9.80;;;;;;;7.42;100.00;101814.00;5069780;28;20530;-69
2023/03/20 00:39:05;;;;;;;13.90;9.77;;;;;;;7.37;100.00;101813.72;5068336;28;20041;-69
2023/03/20 00:41:43;;;;;;;14.13;9.02;;;;;;;7.35;100.00;101801.50;5069069;28;20095;-69
2023/03/20 00:44:19;;;;;;;12.38;8.68;;;;;;;7.31;100.00;101806.50;5068155;28;20103;-69
2023/03/20 00:46:47;;;;;;;14.48;9.57;;;;;;;7.31;100.00;101805.59;5069053;28;20025;-69
2023/03/20 00:49:13;;;;;;;13.93;8.82;;;;;;;7.28;100.00;101789.94;5067765;28;20024;-69
2023/03/20 00:51:38;;;;;;;13.43;8.55;;;;;;;7.23;100.00;101796.50;5068721;28;20037;-69
2023/03/20 00:54:15;;;;;;;13.95;9.32;;;;;;;7.19;100.00;101788.59;5067834;28;20053;-69
2023/03/20 00:56:56;;;;;;;15.55;9.05;;;;;;;7.12;100.00;101791.59;5056855;28;20025;-69
2023/03/20 00:59:25;;;;;;;14.32;9.20;;;;;;;7.12;100.00;101803.59;5057340;28;20046;-69
2023/03/20 01:01:51;;;;;;;10.70;8.13;;;;;;;7.09;100.00;101806.84;5067958;28;20107;-68
2023/03/20 01:04:19;;;;;;;13.43;8.88;;;;;;;7.07;100.00;101818.75;5058214;28;20445;-69
2023/03/20 01:06:45;;;;;;;13.13;7.97;;;;;;;7.06;100.00;101830.75;5069351;28;20028;-68
2023/03/20 01:09:10;;;;;;;14.32;8.27;;;;;;;7.05;100.00;101828.09;5070319;28;20035;-69
2023/03/20 01:11:37;;;;;;;11.77;8.30;;;;;;;7.05;100.00;101846.13;5069783;28;20179;-69
2023/03/20 01:14:03;;;;;;;13.32;8.93;;;;;;;7.04;100.00;101852.06;5068401;28;20056;-69
2023/03/20 01:16:29;;;;;;;10.63;7.75;;;;;;;7.02;100.00;101854.56;5068296;28;20035;-69
2023/03/20 01:18:54;;;;;;;12.48;8.18;;;;;;;7.03;100.00;101855.47;5069056;28;20024;-69
2023/03/20 01:21:20;;;;;;;11.98;8.15;;;;;;;7.02;100.00;101848.50;5068601;28;20036;-68
2023/03/20 01:23:47;;;;;;;13.73;8.30;;;;;;;6.91;100.00;101828.09;5069523;28;20031;-68
2023/03/20 01:26:26;;;;;;;10.55;8.07;;;;;;;6.79;100.00;101814.44;5067617;28;20059;-68
2023/03/20 01:28:51;;;;;;;14.18;9.48;;;;;;;6.72;100.00;101821.81;5069467;28;20086;-69
2023/03/20 01:31:17;;;;;;;16.85;9.60;;;;;;;6.66;100.00;101828.22;5067892;28;20509;-68
2023/03/20 01:33:42;;;;;;;12.88;9.70;;;;;;;6.58;100.00;101826.06;5068753;28;20283;-69
2023/03/20 01:36:10;;;;;;;12.77;9.48;;;;;;;6.56;100.00;101842.22;5067609;28;20021;-68
2023/03/20 01:38:37;;;;;;;12.85;9.80;;;;;;;6.53;100.00;101842.91;5068480;28;20103;-69
2023/03/20 01:41:04;;;;;;;12.60;9.23;;;;;;;6.50;100.00;101837.56;5067515;28;20020;-69
2023/03/20 01:43:34;;;;;;;14.82;10.32;;;;;;;6.44;100.00;101834.59;5068110;28;20034;-68
2023/03/20 01:46:17;;;;;;;14.93;10.60;;;;;;;6.38;100.00;101837.66;5067654;28;20419;-68
2023/03/20 01:48:51;;;;;;;17.92;10.68;;;;;;;6.33;100.00;101839.03;5067860;28;20044;-69
2023/03/20 01:51:19;;;;;;;18.67;10.38;;;;;;;6.29;100.00;101831.91;5056601;28;20476;-68
2023/03/20 01:53:48;;;;;;;16.85;11.55;;;;;;;6.24;100.00;101827.31;5066322;28;20048;-68
2023/03/20 01:56:14;;;;;;;19.33;12.30;;;;;;;6.20;100.00;101827.03;5059876;28;20548;-68
2023/03/20 01:58:44;;;;;;;17.48;12.27;;;;;;;6.15;100.00;101829.31;5048713;28;20066;-68
2023/03/20 02:01:12;;;;;;;19.48;12.43;;;;;;;6.10;100.00;101820.38;5049042;28;20051;-69
2023/03/20 02:03:39;;;;;;;19.20;12.32;;;;;;;6.11;100.00;101832.47;5064208;28;20044;-69
2023/03/20 02:06:06;;;;;;;21.35;12.70;;;;;;;6.07;100.00;101827.91;5058850;28;20098;-68
2023/03/20 02:08:39;;;;;;;17.77;12.48;;;;;;;6.06;100.00;101824.44;5049078;28;20482;-68
2023/03/20 02:11:05;;;;;;;17.38;12.43;;;;;;;6.06;100.00;101818.41;5048598;28;20082;-68
2023/03/20 02:13:31;;;;;;;20.70;14.23;;;;;;;6.03;100.00;101813.03;5047812;28;20025;-69
2023/03/20 02:15:58;;;;;;;21.75;13.02;;;;;;;6.01;100.00;101821.53;5048371;28;20518;-69
2023/03/20 02:18:24;;;;;;;19.98;13.10;;;;;;;6.01;100.00;101842.13;5048880;28;20056;-68
2023/03/20 02:21:21;;;;;;;17.83;12.90;;;;;;;6.00;100.00;101835.19;5048326;28;20036;-68
2023/03/20 02:24:22;;;;;;;22.67;13.65;;;;;;;5.99;100.00;101830.81;5036417;28;20446;-68
2023/03/20 02:27:00;;;;;;;19.70;13.68;;;;;;;6.00;100.00;101849.72;5042640;28;20045;-69
2023/03/20 02:30:03;;;;;;;21.05;13.15;;;;;;;5.97;100.00;101852.97;5043287;28;20032;-69
2023/03/20 02:32:51;;;;;;;19.63;13.43;;;;;;;5.98;100.00;101851.31;5048819;28;20071;-69
2023/03/20 02:35:46;;;;;;;20.65;13.27;;;;;;;5.96;100.00;101847.72;5048502;28;20025;-68
2023/03/20 02:38:36;;;;;;;20.75;13.88;;;;;;;5.91;100.00;101839.72;5047982;28;20110;-69
2023/03/20 02:41:20;;;;;;;24.67;14.77;;;;;;;5.87;100.00;101842.88;5049494;28;20475;-68
2023/03/20 02:44:32;;;;;;;22.00;14.20;;;;;;;5.77;100.00;101831.94;5048615;28;20496;-68
2023/03/20 02:47:04;;;;;;;24.10;14.30;;;;;;;5.74;100.00;101826.59;5038834;28;20124;-68
2023/03/20 02:49:52;;;;;;;20.40;14.20;;;;;;;5.68;100.00;101826.19;5048217;28;20032;-69
2023/03/20 02:52:24;;;;;;;21.15;13.52;;;;;;;5.65;100.00;101821.72;5050626;28;20124;-68
2023/03/20 02:55:12;;;;;;;24.17;13.93;;;;;;;5.64;100.00;101808.78;5048328;28;20298;-68
2023/03/20 02:57:58;;;;;;;20.50;13.50;;;;;;;5.62;100.00;101815.47;5054254;28;20154;-68
2023/03/20 03:00:53;;;;;;;25.35;15.15;;;;;;;5.64;100.00;101816.50;5067465;28;20098;-68
2023/03/20 03:03:25;;;;;;;22.33;13.43;;;;;;;5.62;100.00;101813.81;5066611;28;20032;-68
2023/03/20 03:06:00;;;;;;;21.10;14.70;;;;;;;5.60;100.00;101809.34;5042006;28;20040;-69
2023/03/20 03:08:30;;;;;;;22.02;14.45;;;;;;;5.60;100.00;101807.66;5055329;28;20051;-68
2023/03/20 03:11:04;;;;;;;19.48;13.18;;;;;;;5.58;100.00;101813.47;5067157;28;20028;-69
2023/03/20 03:13:32;;;;;;;19.63;14.13;;;;;;;5.57;100.00;101809.13;5065368;28;20032;-68
2023/03/20 03:16:10;;;;;;;23.25;13.10;;;;;;;5.56;100.00;101802.22;5066886;28;20149;-68
2023/03/20 03:18:36;;;;;;;21.38;13.82;;;;;;;5.51;100.00;101789.94;5065925;28;20423;-68
2023/03/20 03:21:05;;;;;;;23.30;14.20;;;;;;;5.49;100.00;101794.06;5066803;28;20035;-68
2023/03/20 03:23:38;;;;;;;24.48;14.88;;;;;;;5.47;100.00;101781.94;5065611;28;20024;-68
2023/03/20 03:26:06;;;;;;;19.90;13.77;;;;;;;5.46;100.00;101775.88;5069957;28;20111;-68
2023/03/20 03:28:38;;;;;;;18.48;13.80;;;;;;;5.44;100.00;101772.31;5071149;28;20020;-68
2023/03/20 03:31:07;;;;;;;21.08;14.48;;;;;;;5.41;100.00;101769.53;5070457;28;20054;-68
2023/03/20 03:33:35;;;;;;;21.20;14.32;;;;;;;5.40;100.00;101776.34;5070137;28;20031;-68
2023/03/20 03:36:08;;;;;;;19.00;14.13;;;;;;;5.40;100.00;101778.03;5070514;28;20024;-69
2023/03/20 03:38:58;;;;;;;18.27;12.35;;;;;;;5.40;100.00;101783.16;5071567;28;20024;-68
2023/03/20 03:41:27;;;;;;;23.60;13.35;;;;;;;5.37;100.00;101775.25;5070622;28;20553;-68
2023/03/20 03:44:19;;;;;;;22.15;13.32;;;;;;;5.36;100.00;101779.47;5069641;28;20032;-67
2023/03/20 03:46:51;;;;;;;19.40;12.25;;;;;;;5.36;100.00;101763.19;5052576;28;20368;-68
2023/03/20 03:49:25;;;;;;;23.67;12.32;;;;;;;5.34;100.00;101759.63;5068766;28;20016;-68
2023/03/20 03:51:55;;;;;;;22.52;13.35;;;;;;;5.32;100.00;101768.91;5071059;28;20021;-68
2023/03/20 03:54:33;;;;;;;19.92;13.13;;;;;;;5.29;100.00;101759.28;5070043;28;20463;-68
2023/03/20 03:57:01;;;;;;;20.90;12.65;;;;;;;5.29;100.00;101762.75;5056246;28;20025;-68
2023/03/20 03:59:34;;;;;;;22.67;13.32;;;;;;;5.30;100.00;101761.09;5059057;28;20028;-69
2023/03/20 04:02:02;;;;;;;19.23;13.50;;;;;;;5.26;100.00;101759.97;5070786;28;20039;-68
2023/03/20 04:04:30;;;;;;;20.90;12.25;;;;;;;5.27;100.00;101768.59;5070737;28;20032;-68
2023/03/20 04:06:56;;;;;;;18.25;12.75;;;;;;;5.28;100.00;101768.69;5069203;28;20064;-69
2023/03/20 04:09:21;;;;;;;20.92;12.63;;;;;;;5.28;100.00;101766.13;5070019;28;20051;-68
2023/03/20 04:11:50;;;;;;;19.00;12.40;;;;;;;5.24;100.00;101761.56;5069225;28;20033;-68
2023/03/20 04:14:15;;;;;;;17.55;12.48;;;;;;;5.26;100.00;101759.97;5069573;28;20473;-68
2023/03/20 04:16:41;;;;;;;19.10;11.60;;;;;;;5.24;100.00;101755.50;5063219;28;20035;-68
2023/03/20 04:19:06;;;;;;;17.77;11.70;;;;;;;5.24;100.00;101758.09;5069940;28;20390;-68
2023/03/20 04:21:32;;;;;;;17.17;11.50;;;;;;;5.23;100.00;101758.88;5068268;28;20043;-68
2023/03/20 04:23:57;;;;;;;16.73;11.30;;;;;;;5.23;100.00;101754.66;5070124;28;20103;-69
2023/03/20 04:26:23;;;;;;;17.80;11.45;;;;;;;5.21;100.00;101748.50;5066634;28;20032;-68
2023/03/20 04:28:48;;;;;;;19.08;11.70;;;;;;;5.22;100.00;101746.81;5069475;28;20020;-68
2023/03/20 04:31:13;;;;;;;22.10;12.05;;;;;;;5.22;100.00;101745.13;5068858;28;20036;-68
2023/03/20 04:33:39;;;;;;;17.73;11.18;;;;;;;5.19;100.00;101756.88;5069926;28;20029;-68
2023/03/20 04:36:05;;;;;;;17.25;12.27;;;;;;;5.19;100.00;101756.88;5068122;28;20092;-68
2023/03/20 04:38:30;;;;;;;21.52;13.90;;;;;;;5.18;100.00;101750.84;5056805;28;20256;-68
2023/03/20 04:40:56;;;;;;;17.92;13.00;;;;;;;5.18;100.00;101744.81;5056146;28;20431;-68
2023/03/20 04:43:21;;;;;;;18.60;12.57;;;;;;;5.16;100.00;101742.16;5068787;28;20016;-68
2023/03/20 04:45:46;;;;;;;17.27;12.23;;;;;;;5.13;100.00;101747.97;5067704;28;20052;-68
2023/03/20 04:48:12;;;;;;;21.75;13.63;;;;;;;5.14;100.00;101738.59;5062319;28;20385;-68
2023/03/20 04:50:37;;;;;;;19.05;13.55;;;;;;;5.10;100.00;101737.47;5044419;28;20442;-68
2023/03/20 04:53:03;;;;;;;17.08;12.75;;;;;;;5.10;100.00;101728.88;5067482;28;20048;-68
2023/03/20 04:55:28;;;;;;;18.70;12.93;;;;;;;5.09;100.00;101725.41;5064045;28;20017;-68
2023/03/20 04:57:53;;;;;;;19.48;12.65;;;;;;;5.09;100.00;101724.53;5050007;28;20313;-68
2023/03/20 05:00:19;;;;;;;16.67;12.13;;;;;;;5.04;100.00;101717.38;5036804;28;20017;-69
2023/03/20 05:02:45;;;;;;;17.27;11.98;;;;;;;5.03;100.00;101719.84;5050963;28;20354;-69
2023/03/20 05:05:10;;;;;;;16.23;11.68;;;;;;;5.03;100.00;101731.03;5050877;28;20020;-68
2023/03/20 05:07:36;;;;;;;22.25;12.57;;;;;;;5.04;100.00;101739.59;5050775;28;20112;-68
2023/03/20 05:10:03;;;;;;;17.30;12.00;;;;;;;5.02;100.00;101739.50;5050180;28;20063;-68
2023/03/20 05:12:28;;;;;;;18.65;11.35;;;;;;;5.02;100.00;101749.78;5050640;28;20075;-68
2023/03/20 05:14:54;;;;;;;17.25;10.63;;;;;;;5.01;100.00;101737.75;5050711;28;20025;-68
2023/03/20 05:17:20;;;;;;;18.55;11.93;;;;;;;5.01;100.00;101727.47;5049213;28;20366;-68
2023/03/20 05:19:46;;;;;;;17.83;10.90;;;;;;;5.01;100.00;101732.59;5046491;28;20025;-68
2023/03/20 05:22:12;;;;;;;15.70;10.82;;;;;;;5.02;100.00;101729.22;5050120;28;20128;-68
2023/03/20 05:24:37;;;;;;;19.40;10.95;;;;;;;5.04;100.00;101726.75;5049333;28;20028;-68
2023/03/20 05:27:02;;;;;;;20.35;11.18;;;;;;;5.05;100.00;101721.72;5048705;28;20547;-68
2023/03/20 05:29:28;;;;;;;16.02;10.15;;;;;;;5.05;100.00;101728.56;5048839;28;20021;-68
2023/03/20 05:31:56;;;;;;;17.92;10.40;;;;;;;5.05;100.00;101726.88;5042803;28;20102;-68
2023/03/20 05:34:24;;;;;;;19.02;10.85;;;;;;;5.03;100.00;101728.47;5041337;28;20162;-68
2023/03/20 05:36:49;;;;;;;17.20;11.13;;;;;;;5.03;100.00;101723.31;5036511;28;20029;-68
2023/03/20 05:39:15;;;;;;;18.77;10.75;;;;;;;5.03;100.00;101723.31;5061631;28;20416;-68
2023/03/20 05:41:40;;;;;;;17.83;9.95;;;;;;;5.06;100.00;101725.19;5067815;28;20024;-69
2023/03/20 05:44:05;;;;;;;16.60;10.38;;;;;;;5.08;100.00;101721.06;5066412;28;20052;-68
2023/03/20 05:46:31;;;;;;;15.98;9.52;;;;;;;5.10;100.00;101726.31;5060517;28;20145;-68
2023/03/20 05:48:56;;;;;;;16.90;10.82;;;;;;;5.08;100.00;101723.63;5046165;28;20029;-68
2023/03/20 05:51:21;;;;;;;15.20;10.13;;;;;;;5.08;100.00;101727.88;5043494;28;20033;-68
2023/03/20 05:53:46;;;;;;;18.20;9.98;;;;;;;5.05;100.00;101734.56;5053255;28;20428;-68
2023/03/20 05:56:12;;;;;;;16.38;9.68;;;;;;;5.07;100.00;101738.94;5050356;28;20039;-68
2023/03/20 05:58:37;;;;;;;17.45;9.88;;;;;;;5.08;100.00;101740.72;5062743;28;20423;-68
2023/03/20 06:01:03;;;;;;;16.13;9.85;;;;;;;5.10;100.00;101741.72;5053949;28;20592;-68
2023/03/20 06:03:28;;;;;;;19.95;9.90;;;;;;;5.10;100.00;101752.00;5045148;28;20491;-68
2023/03/20 06:05:54;;;;;;;14.35;9.00;;;;;;;5.13;100.00;101762.47;5048791;28;20074;-68
2023/03/20 06:08:19;;;;;;;14.85;10.40;;;;;;;5.14;100.00;101756.56;5050884;28;20392;-68
2023/03/20 06:10:45;;;;;;;18.70;9.80;;;;;;;5.14;100.00;101761.72;5053393;28;20025;-68
2023/03/20 06:13:10;;;;;;;12.95;8.88;;;;;;;5.18;100.00;101760.25;5061748;28;20068;-68
2023/03/20 06:15:35;;;;;;;17.08;9.55;;;;;;;5.19;100.00;101757.78;5067544;28;20020;-69
2023/03/20 06:18:01;;;;;;;17.23;9.57;;;;;;;5.22;100.00;101767.34;5065140;28;20029;-68
2023/03/20 06:20:26;;;;;;;14.65;9.10;;;;;;;5.23;100.00;101764.03;5055337;28;20033;-68
2023/03/20 06:22:51;;;;;;;12.05;9.02;;;;;;;5.25;100.00;101759.88;5060147;28;20032;-69
2023/03/20 06:25:17;;;;;;;18.70;10.30;;;;;;;5.26;100.00;101770.25;5056933;28;20086;-69
2023/03/20 06:27:45;;;;;;;16.60;9.37;;;;;;;5.26;100.00;101762.56;5047874;28;20116;-68
2023/03/20 06:30:11;;;;;;;16.83;9.40;;;;;;;5.28;100.00;101767.81;5046824;28;20111;-68
2023/03/20 06:32:36;;;;;;;15.02;9.27;;;;;;;5.29;100.00;101775.59;5036261;28;20018;-68
2023/03/20 06:35:04;;;;;;;16.63;9.50;;;;;;;5.31;100.00;101772.28;5053251;28;20035;-68
2023/03/20 06:37:30;;;;;;;15.60;9.85;;;;;;;5.32;100.00;101776.63;5055195;28;20033;-68
2023/03/20 06:39:55;;;;;;;16.98;9.65;;;;;;;5.33;100.00;101775.81;5066898;28;20032;-67
2023/03/20 06:42:20;;;;;;;12.15;8.30;;;;;;;5.33;100.00;101773.25;5064934;28;20032;-68
2023/03/20 06:44:46;;;;;;;13.85;8.65;;;;;;;5.35;100.00;101782.84;5053095;28;20039;-69
2023/03/20 06:47:11;;;;;;;15.68;8.85;;;;;;;5.40;100.00;101785.72;5060997;28;20044;-69
2023/03/20 06:49:36;;;;;;;13.45;8.63;;;;;;;5.42;100.00;101786.72;5050527;28;20040;-69
2023/03/20 06:52:02;;;;;;;15.15;7.90;;;;;;;5.48;100.00;101799.13;5049862;28;20458;-69
2023/03/20 06:54:27;;;;;;;16.63;9.57;;;;;;;5.48;100.00;101800.03;5040187;28;20037;-68
2023/03/20 06:56:52;;;;;;;19.17;9.10;;;;;;;5.50;100.00;101806.16;5042071;28;20027;-69
2023/03/20 06:59:18;;;;;;;17.10;8.40;;;;;;;5.56;100.00;101802.22;5046384;28;20024;-69
2023/03/20 07:01:43;;;;;;;14.70;8.73;;;;;;;5.58;100.00;101814.38;5059394;28;20424;-70
2023/03/20 07:04:08;;;;;;;14.13;8.98;;;;;;;5.60;100.00;101811.91;5066488;28;20097;-69
2023/03/20 07:06:34;;;;;;;16.05;8.23;;;;;;;5.62;100.00;101808.66;5042226;28;20133;-69
2023/03/20 07:09:00;;;;;;;17.42;9.15;;;;;;;5.65;100.00;101813.13;5037414;28;20613;-69
2023/03/20 07:11:26;;;;;;;11.55;7.82;;;;;;;5.69;100.00;101816.78;5036069;28;20048;-69
2023/03/20 07:13:51;;;;;;;13.20;8.10;;;;;;;5.69;100.00;101814.22;5054230;28;20029;-69
2023/03/20 07:16:16;;;;;;;13.68;8.15;;;;;;;5.70;100.00;101816.88;5047685;28;20048;-69
2023/03/20 07:18:42;;;;;;;17.15;8.82;;;;;;;5.74;100.00;101818.88;5059319;28;20158;-69
2023/03/20 07:21:07;;;;;;;14.98;8.57;;;;;;;5.75;100.00;101827.50;5054522;28;20032;-67
2023/03/20 07:23:33;;;;;;;12.20;8.20;;;;;;;5.78;100.00;101827.69;5059543;28;20031;-68
2023/03/20 07:25:59;;;;;;;18.38;9.13;;;;;;;5.80;100.00;101827.81;5054123;28;20056;-67
2023/03/20 07:28:24;;;;;;;14.43;8.70;;;;;;;5.80;100.00;101818.41;5059064;28;20029;-68
2023/03/20 07:30:50;;;;;;;12.90;8.20;;;;;;;5.82;100.00;101829.72;5053980;28;20067;-68
2023/03/20 07:33:15;;;;;;;15.23;8.38;;;;;;;5.86;100.00;101831.69;5047899;28;20382;-68
2023/03/20 07:35:42;;;;;;;18.30;8.13;;;;;;;5.88;100.00;101824.09;5052910;28;20057;-66
2023/03/20 07:38:07;;;;;;;15.60;8.27;;;;;;;5.88;100.00;101826.66;5052782;28;20024;-66
2023/03/20 07:40:32;;;;;;;15.77;8.00;;;;;;;5.91;100.00;101834.56;5049247;28;20083;-66
2023/03/20 07:42:58;;;;;;;16.88;8.55;;;;;;;5.93;100.00;101838.16;5041256;28;20033;-66
2023/03/20 07:45:23;;;;;;;13.63;8.07;;;;;;;5.95;100.00;101831.44;5049833;28;20079;-66
2023/03/20 07:47:49;;;;;;;16.80;7.65;;;;;;;5.98;100.00;101826.47;5051143;28;20035;-66
2023/03/20 07:50:14;;;;;;;15.02;7.85;;;;;;;6.03;100.00;101829.34;5050174;28;20021;-66
2023/03/20 07:52:40;;;;;;;16.42;8.63;;;;;;;6.06;100.00;101828.72;5052824;28;20045;-66
2023/03/20 07:55:06;;;;;;;16.80;9.10;;;;;;;6.06;100.00;101827.00;5048746;28;20037;-66
2023/03/20 07:57:32;;;;;;;15.27;7.82;;;;;;;6.07;100.00;101830.47;5047339;28;20028;-66
2023/03/20 07:59:57;;;;;;;16.75;7.95;;;;;;;6.06;100.00;101832.16;5058140;28;20028;-66
2023/03/20 08:02:23;;;;;;;15.40;8.43;;;;;;;6.07;100.00;101833.03;5065338;28;20020;-66
2023/03/20 08:04:48;;;;;;;14.93;7.97;;;;;;;6.06;100.00;101831.28;5065341;28;20024;-66
2023/03/20 08:07:13;;;;;;;15.30;7.13;;;;;;;6.09;100.00;101831.47;5064635;28;20294;-66
2023/03/20 08:09:39;;;;;;;13.00;8.25;;;;;;;6.09;100.00;101828.91;5064621;28;20028;-66
2023/03/20 08:12:04;;;;;;;12.43;7.38;;;;;;;6.12;100.00;101834.25;5068504;28;20036;-66
2023/03/20 08:14:30;;;;;;;15.23;7.72;;;;;;;6.12;100.00;101823.94;5057864;28;20051;-66
2023/03/20 08:16:56;;;;;;;16.27;7.95;;;;;;;6.14;100.00;101840.38;5063851;28;20021;-66
2023/03/20 08:19:21;;;;;;;14.98;8.68;;;;;;;6.15;100.00;101828.41;5051165;28;20021;-66
2023/03/20 08:21:48;;;;;;;16.52;7.88;;;;;;;6.15;100.00;101828.41;5051475;28;20461;-66
2023/03/20 08:24:14;;;;;;;12.10;6.95;;;;;;;6.14;100.00;101832.66;5050157;28;20033;-66
2023/03/20 08:26:39;;;;;;;12.02;6.57;;;;;;;6.13;100.00;101831.75;5051470;28;20083;-66
2023/03/20 08:29:05;;;;;;;14.45;7.53;;;;;;;6.13;100.00;101825.75;5051447;28;20043;-66
2023/03/20 08:31:30;;;;;;;14.93;7.45;;;;;;;6.15;100.00;101829.31;5051795;28;20028;-66
2023/03/20 08:33:56;;;;;;;17.13;7.00;;;;;;;6.15;100.00;101829.31;5051180;28;20029;-66
2023/03/20 08:36:21;;;;;;;11.77;6.88;;;;;;;6.18;100.00;101826.94;5051490;28;20031;-66
2023/03/20 08:38:48;;;;;;;10.68;6.80;;;;;;;6.23;100.00;101830.72;5051422;28;20384;-66
2023/03/20 08:41:14;;;;;;;12.80;6.03;;;;;;;6.27;100.00;101824.06;5052784;28;20025;-66
2023/03/20 08:43:40;;;;;;;17.10;7.25;;;;;;;6.29;100.00;101835.38;5051567;28;20025;-66
2023/03/20 08:46:05;;;;;;;11.00;6.20;;;;;;;6.32;100.00;101837.25;5052285;28;20247;-66
2023/03/20 08:48:31;;;;;;;11.68;6.90;;;;;;;6.34;100.00;101830.50;5051023;28;20635;-66
2023/03/20 08:50:56;;;;;;;16.55;6.65;;;;;;;6.36;100.00;101834.09;5051930;28;20029;-66
2023/03/20 08:53:21;;;;;;;15.35;7.43;;;;;;;6.35;100.00;101833.19;5050917;28;20049;-66
2023/03/20 08:55:48;;;;;;;12.38;6.28;;;;;;;6.40;100.00;101830.03;5052283;28;20478;-66
2023/03/20 08:58:14;;;;;;;11.60;6.35;;;;;;;6.42;100.00;101829.31;5050056;28;20036;-66
2023/03/20 09:00:40;;;;;;;12.38;6.10;;;;;;;6.45;100.00;101828.63;5049748;28;20032;-66
2023/03/20 09:03:06;;;;;;;16.48;6.93;;;;;;;6.48;100.00;101821.09;5050164;28;20040;-66
2023/03/20 09:05:31;;;;;;;12.23;5.45;;;;;;;6.51;100.00;101817.84;5049620;28;20036;-66
2023/03/20 09:07:56;;;;;;;11.88;5.80;;;;;;;6.53;100.00;101818.84;5050184;28;20052;-66
2023/03/20 09:10:22;;;;;;;9.55;5.72;;;;;;;6.54;100.00;101818.03;5049645;28;20024;-67
2023/03/20 09:12:47;;;;;;;15.25;5.95;;;;;;;6.56;100.00;101822.50;5050275;28;20029;-66
2023/03/20 09:15:12;;;;;;;12.65;6.05;;;;;;;6.58;100.00;101820.91;5050895;28;20028;-66
2023/03/20 09:17:37;;;;;;;18.58;6.30;;;;;;;6.62;100.00;101834.88;5051165;28;20640;-66
2023/03/20 09:20:04;;;;;;;14.45;6.47;;;;;;;6.60;100.00;101839.06;5051363;28;20082;-66
2023/03/20 09:22:29;;;;;;;11.15;6.30;;;;;;;6.63;100.00;101838.34;5039873;28;20108;-66
2023/03/20 09:24:55;;;;;;;10.60;5.40;;;;;;;6.63;100.00;101843.50;5038418;28;20163;-66
2023/03/20 09:27:20;;;;;;;12.68;6.50;;;;;;;6.60;100.00;101849.34;5051039;28;20413;-66
2023/03/20 09:29:45;;;;;;;11.25;6.30;;;;;;;6.53;100.00;101849.75;5052947;28;20453;-66
2023/03/20 09:32:12;;;;;;;15.48;6.95;;;;;;;6.47;100.00;101853.72;5050629;28;20048;-66
2023/03/20 09:34:37;;;;;;;12.43;6.82;;;;;;;6.39;100.00;101848.81;5052097;28;20066;-66
2023/03/20 09:37:03;;;;;;;13.45;6.68;;;;;;;6.29;100.00;101842.19;5050758;28;20786;-66
2023/03/20 09:39:29;;;;;;;14.10;7.45;;;;;;;6.24;100.00;101855.66;5051894;28;20020;-66
2023/03/20 09:41:58;;;;;;;14.00;7.78;;;;;;;6.24;100.00;101850.50;5050754;28;20033;-66
2023/03/20 09:44:52;;;;;;;11.35;6.78;;;;;;;6.17;100.00;101850.88;5051829;28;20635;-66
2023/03/20 09:47:42;;;;;;;14.45;6.82;;;;;;;6.09;100.00;101849.50;5051781;28;20080;-66
2023/03/20 09:50:31;;;;;;;11.07;6.17;;;;;;;6.10;100.00;101851.25;5050765;28;20090;-66
2023/03/20 09:53:05;;;;;;;13.93;6.78;;;;;;;6.11;100.00;101846.25;5042370;28;20524;-66
2023/03/20 09:55:36;;;;;;;16.83;7.70;;;;;;;6.11;100.00;101847.91;5046541;28;20048;-66
2023/03/20 09:58:14;;;;;;;15.52;7.47;;;;;;;6.14;100.00;101848.09;5047801;28;20024;-66
2023/03/20 10:00:43;;;;;;;10.45;6.32;;;;;;;6.13;100.00;101844.63;5051230;28;20484;-66
2023/03/20 10:03:23;;;;;;;12.70;7.05;;;;;;;6.16;100.00;101843.06;5050608;28;20414;-66
2023/03/20 10:06:10;;;;;;;12.23;7.07;;;;;;;6.17;100.00;101843.16;5049392;28;20029;-66
2023/03/20 10:08:37;;;;;;;15.18;6.70;;;;;;;6.14;100.00;101845.53;5054617;28;20024;-66
2023/03/20 10:11:09;;;;;;;13.52;6.50;;;;;;;6.13;100.00;101842.06;5051961;28;20499;-66
2023/03/20 10:13:37;;;;;;;;;;;;;;;6.12;100.00;101837.72;5054927;28;20032;-66
2023/03/20 10:16:36;;;;;;;13.05;5.60;;;;;;;6.17;100.00;101842.28;5051193;28;20475;-66
2023/03/20 10:19:16;;;;;;;10.73;5.78;;;;;;;6.10;100.00;101830.66;5049302;28;20013;-66
2023/03/20 10:21:44;;;;;;;10.77;6.38;;;;;;;6.10;100.00;101828.09;5052032;28;20020;-66
2023/03/20 10:24:18;;;;;;;14.88;6.10;;;;;;;6.03;100.00;101825.91;5048977;28;20100;-66
2023/03/20 10:26:48;;;;;;;12.00;6.07;;;;;;;6.05;100.00;101827.81;5051576;28;20024;-66
2023/03/20 10:29:25;;;;;;;14.02;6.10;;;;;;;6.15;100.00;101824.19;5049067;28;20025;-66
2023/03/20 10:32:11;;;;;;;11.55;5.75;;;;;;;6.22;100.00;101828.03;5050206;28;20025;-66
2023/03/20 10:35:06;;;;;;;13.20;5.57;;;;;;;6.23;100.00;101819.50;5051740;28;20465;-66
2023/03/20 10:37:47;;;;;;;10.75;5.80;;;;;;;6.24;100.00;101824.75;5053917;28;20032;-67
2023/03/20 10:40:21;;;;;;;13.63;5.85;;;;;;;6.31;100.00;101818.34;5063859;28;20020;-66
2023/03/20 10:42:48;;;;;;;14.35;6.82;;;;;;;6.37;100.00;101815.25;5043943;28;20021;-66
2023/03/20 10:45:32;;;;;;;12.13;6.53;;;;;;;6.42;100.00;101811.28;5040710;28;20079;-66
2023/03/20 10:48:01;;;;;;;12.93;6.45;;;;;;;6.45;100.00;101814.09;5035669;28;20441;-66
2023/03/20 10:50:54;;;;;;;12.00;6.50;;;;;;;6.48;100.00;101811.72;5048946;28;20192;-66
2023/03/20 10:53:28;;;;;;;16.17;7.47;;;;;;;6.53;100.00;101812.00;5047166;28;20501;-66
2023/03/20 10:55:59;;;;;;;18.02;6.35;;;;;;;6.49;100.00;101813.47;5049098;28;20071;-66
2023/03/20 10:58:28;;;;;;;16.83;7.25;;;;;;;6.55;100.00;101819.84;5035388;28;20091;-66
2023/03/20 11:00:55;;;;;;;11.18;7.03;;;;;;;6.60;100.00;101821.03;5034634;28;20393;-66
2023/03/20 11:03:27;;;;;;;13.05;6.70;;;;;;;6.67;100.00;101820.63;5042341;28;20033;-66
2023/03/20 11:06:00;;;;;;;;;;;;;;;6.70;100.00;101813.09;5062150;28;20016;-66
2023/03/20 11:08:33;;;;;;;13.77;5.95;;;;;;;6.76;100.00;101814.25;5052769;28;19966;-66
2023/03/20 11:11:00;;;;;;;17.13;7.00;;;;;;;6.68;100.00;101814.66;5060650;28;20024;-66
2023/03/20 11:13:33;;;;;;;17.55;6.03;;;;;;;6.70;100.00;101804.44;5058536;28;20526;-66
2023/03/20 11:16:08;;;;;;;13.15;5.68;;;;;;;6.72;100.00;101803.78;5059426;28;20025;-66
2023/03/20 11:18:33;;;;;;;15.05;5.93;;;;;;;6.76;100.00;101798.81;5060461;28;20392;-66
2023/03/20 11:21:01;;;;;;;12.32;5.72;;;;;;;6.77;100.00;101795.41;5053112;28;20021;-66
2023/03/20 11:23:32;;;;;;;11.60;6.07;;;;;;;6.75;100.00;101791.84;5063391;28;20327;-68
2023/03/20 11:26:03;;;;;;;12.63;5.85;;;;;;;6.86;100.00;101785.69;5066877;28;20435;-67